createdAt,value
2017-08-26T00:00:47.122Z,13.8
2017-08-26T00:01:59.756Z,13.86
2017-08-26T00:03:12.329Z,13.91
2017-08-26T00:04:24.611Z,13.83
2017-08-26T00:05:37.296Z,13.83
2017-08-26T00:06:49.277Z,13.78
2017-08-26T00:08:01.833Z,13.85
2017-08-26T00:09:14.067Z,13.85
2017-08-26T00:10:26.063Z,13.79
2017-08-26T00:11:38.665Z,13.79
2017-08-26T00:12:51.231Z,13.82
2017-08-26T00:14:03.530Z,13.8
2017-08-26T00:15:16.122Z,13.71
2017-08-26T00:16:28.803Z,13.82
2017-08-26T00:17:41.399Z,13.73
2017-08-26T00:18:53.713Z,13.68
2017-08-26T00:20:05.947Z,13.75
2017-08-26T00:21:18.188Z,13.75
2017-08-26T00:22:30.782Z,13.65
2017-08-26T00:23:43.084Z,13.68
2017-08-26T00:24:55.704Z,13.65
2017-08-26T00:26:07.643Z,13.64
2017-08-26T00:27:20.277Z,13.68
2017-08-26T00:28:32.260Z,13.6
2017-08-26T00:29:44.920Z,13.7
2017-08-26T00:30:57.439Z,13.71
2017-08-26T00:32:10.011Z,13.62
2017-08-26T00:33:22.524Z,13.65
2017-08-26T00:34:35.176Z,13.61
2017-08-26T00:35:47.104Z,13.64
2017-08-26T00:36:59.646Z,13.6
2017-08-26T00:38:12.221Z,13.62
2017-08-26T00:39:24.516Z,13.64
2017-08-26T00:40:37.162Z,13.57
2017-08-26T00:41:49.784Z,13.6
2017-08-26T00:43:02.057Z,13.55
2017-08-26T00:44:14.592Z,13.5
2017-08-26T00:45:27.199Z,13.47
2017-08-26T00:46:39.811Z,13.46
2017-08-26T00:47:52.383Z,13.42
2017-08-26T00:49:04.967Z,13.39
2017-08-26T00:50:17.224Z,13.45
2017-08-26T00:51:28.841Z,13.42
2017-08-26T00:52:41.092Z,13.42
2017-08-26T00:53:53.664Z,13.42
2017-08-26T00:55:05.969Z,13.37
2017-08-26T00:56:18.551Z,13.37
2017-08-26T00:57:30.815Z,13.33
2017-08-26T00:58:43.393Z,13.31
2017-08-26T00:59:56.262Z,13.33
2017-08-26T01:01:08.534Z,13.33
2017-08-26T01:02:21.176Z,13.33
2017-08-26T01:03:33.457Z,13.31
2017-08-26T01:04:45.135Z,13.36
2017-08-26T01:05:57.389Z,13.33
2017-08-26T01:07:09.951Z,13.23
2017-08-26T01:08:22.482Z,13.24
2017-08-26T01:09:35.079Z,13.21
2017-08-26T01:10:47.063Z,13.23
2017-08-26T01:11:59.670Z,13.23
2017-08-26T01:13:11.904Z,13.26
2017-08-26T01:14:23.882Z,13.26
2017-08-26T01:15:36.407Z,13.23
2017-08-26T01:16:49.027Z,13.19
2017-08-26T01:18:01.638Z,13.23
2017-08-26T01:19:14.167Z,13.16
2017-08-26T01:20:26.743Z,13.17
2017-08-26T01:21:39.599Z,13.23
2017-08-26T01:22:51.819Z,13.09
2017-08-26T01:24:04.409Z,13.13
2017-08-26T01:25:16.948Z,13.12
2017-08-26T01:26:29.550Z,13.17
2017-08-26T01:27:41.813Z,13.11
2017-08-26T01:28:54.418Z,13.17
2017-08-26T01:30:06.700Z,13.09
2017-08-26T01:31:18.929Z,13.11
2017-08-26T01:32:31.244Z,13.11
2017-08-26T01:33:43.880Z,13.16
2017-08-26T01:34:56.121Z,13.17
2017-08-26T01:36:08.727Z,13.01
2017-08-26T01:37:21.331Z,12.95
2017-08-26T01:38:33.909Z,13.02
2017-08-26T01:39:46.528Z,13.08
2017-08-26T01:40:59.190Z,13.02
2017-08-26T01:42:11.488Z,13.08
2017-08-26T01:43:23.471Z,13.05
2017-08-26T01:44:35.976Z,13.01
2017-08-26T01:45:48.296Z,13.02
2017-08-26T01:47:00.621Z,12.99
2017-08-26T01:48:13.264Z,12.94
2017-08-26T01:49:25.856Z,12.95
2017-08-26T01:50:38.455Z,12.94
2017-08-26T01:51:51.029Z,12.91
2017-08-26T01:53:03.581Z,12.91
2017-08-26T01:54:15.807Z,12.9
2017-08-26T01:55:28.412Z,12.9
2017-08-26T01:56:40.684Z,12.88
2017-08-26T01:57:52.958Z,12.86
2017-08-26T01:59:05.620Z,12.87
2017-08-26T02:00:18.275Z,12.9
2017-08-26T02:01:30.875Z,12.86
2017-08-26T02:02:43.463Z,12.86
2017-08-26T02:03:55.680Z,12.87
2017-08-26T02:05:08.229Z,12.78
2017-08-26T02:06:20.499Z,12.84
2017-08-26T02:07:32.783Z,12.8
2017-08-26T02:08:45.073Z,12.81
2017-08-26T02:09:57.361Z,12.84
2017-08-26T02:11:09.928Z,12.72
2017-08-26T02:12:22.542Z,12.7
2017-08-26T02:13:34.848Z,12.75
2017-08-26T02:14:46.801Z,12.83
2017-08-26T02:15:59.102Z,12.75
2017-08-26T02:17:11.666Z,12.7
2017-08-26T02:18:23.917Z,12.78
2017-08-26T02:19:36.227Z,12.76
2017-08-26T02:20:48.829Z,12.73
2017-08-26T02:22:01.125Z,12.72
2017-08-26T02:23:13.693Z,12.8
2017-08-26T02:24:25.978Z,12.75
2017-08-26T02:25:38.231Z,12.69
2017-08-26T02:26:50.832Z,12.7
2017-08-26T02:28:03.152Z,12.69
2017-08-26T02:29:15.424Z,12.7
2017-08-26T02:30:28.012Z,12.7
2017-08-26T02:31:40.340Z,12.68
2017-08-26T02:32:52.900Z,12.68
2017-08-26T02:34:04.931Z,12.65
2017-08-26T02:35:17.494Z,12.66
2017-08-26T02:36:29.792Z,12.68
2017-08-26T02:37:42.631Z,12.68
2017-08-26T02:38:55.231Z,12.65
2017-08-26T02:40:07.516Z,12.65
2017-08-26T02:41:19.798Z,12.63
2017-08-26T02:42:32.389Z,12.62
2017-08-26T02:43:44.939Z,12.69
2017-08-26T02:44:57.606Z,12.57
2017-08-26T02:46:09.202Z,12.55
2017-08-26T02:47:21.808Z,12.66
2017-08-26T02:48:34.102Z,12.62
2017-08-26T02:49:46.417Z,12.54
2017-08-26T02:50:59.016Z,12.66
2017-08-26T02:52:10.973Z,12.61
2017-08-26T02:53:22.950Z,12.66
2017-08-26T02:54:35.489Z,12.62
2017-08-26T02:55:48.095Z,12.53
2017-08-26T02:57:00.094Z,12.58
2017-08-26T02:58:12.682Z,12.55
2017-08-26T02:59:24.937Z,12.63
2017-08-26T03:00:37.517Z,12.54
2017-08-26T03:01:49.806Z,12.57
2017-08-26T03:03:02.365Z,12.47
2017-08-26T03:04:14.986Z,12.54
2017-08-26T03:05:27.260Z,12.54
2017-08-26T03:06:39.895Z,12.55
2017-08-26T03:07:52.174Z,12.54
2017-08-26T03:09:04.436Z,12.55
2017-08-26T03:10:17.076Z,12.48
2017-08-26T03:11:29.298Z,12.53
2017-08-26T03:12:41.681Z,12.53
2017-08-26T03:13:53.928Z,12.53
2017-08-26T03:15:06.497Z,12.62
2017-08-26T03:16:19.068Z,12.57
2017-08-26T03:17:31.344Z,12.58
2017-08-26T03:18:43.995Z,12.57
2017-08-26T03:19:56.286Z,12.53
2017-08-26T03:21:09.125Z,12.39
2017-08-26T03:22:21.397Z,12.53
2017-08-26T03:23:33.994Z,12.55
2017-08-26T03:24:46.263Z,12.54
2017-08-26T03:25:58.483Z,12.53
2017-08-26T03:27:11.015Z,12.54
2017-08-26T03:28:23.586Z,12.54
2017-08-26T03:29:35.927Z,12.53
2017-08-26T03:30:48.223Z,12.53
2017-08-26T03:32:00.190Z,12.55
2017-08-26T03:33:12.124Z,12.54
2017-08-26T03:34:24.719Z,12.54
2017-08-26T03:35:37.377Z,12.45
2017-08-26T03:36:49.672Z,12.54
2017-08-26T03:38:01.915Z,12.54
2017-08-26T03:39:14.159Z,12.54
2017-08-26T03:40:26.398Z,12.54
2017-08-26T03:41:38.980Z,12.5
2017-08-26T03:42:50.926Z,12.45
2017-08-26T03:44:03.466Z,12.55
2017-08-26T03:45:16.043Z,12.4
2017-08-26T03:46:28.590Z,12.54
2017-08-26T03:47:41.255Z,12.43
2017-08-26T03:48:53.550Z,12.55
2017-08-26T03:50:05.509Z,12.43
2017-08-26T03:51:18.023Z,12.45
2017-08-26T03:52:30.618Z,12.39
2017-08-26T03:53:42.995Z,12.4
2017-08-26T03:54:55.214Z,12.54
2017-08-26T03:56:07.482Z,12.51
2017-08-26T03:57:19.823Z,12.43
2017-08-26T03:58:32.376Z,12.37
2017-08-26T03:59:45.023Z,12.37
2017-08-26T04:00:57.310Z,12.45
2017-08-26T04:02:09.602Z,12.37
2017-08-26T04:03:21.235Z,12.5
2017-08-26T04:04:33.817Z,12.44
2017-08-26T04:05:46.083Z,12.4
2017-08-26T04:06:58.347Z,12.4
2017-08-26T04:08:10.630Z,12.43
2017-08-26T04:09:22.901Z,12.43
2017-08-26T04:10:35.450Z,12.4
2017-08-26T04:11:47.721Z,12.43
2017-08-26T04:13:00.269Z,12.44
2017-08-26T04:14:12.276Z,12.45
2017-08-26T04:15:24.547Z,12.4
2017-08-26T04:16:37.162Z,12.37
2017-08-26T04:17:49.804Z,12.36
2017-08-26T04:19:02.499Z,12.43
2017-08-26T04:20:15.166Z,12.44
2017-08-26T04:21:27.725Z,12.45
2017-08-26T04:22:40.284Z,12.45
2017-08-26T04:23:52.861Z,12.51
2017-08-26T04:25:05.192Z,12.58
2017-08-26T04:26:18.154Z,12.57
2017-08-26T04:27:30.785Z,12.55
2017-08-26T04:28:43.329Z,12.63
2017-08-26T04:29:55.931Z,12.68
2017-08-26T04:31:08.227Z,12.55
2017-08-26T04:32:20.797Z,12.65
2017-08-26T04:33:33.423Z,12.7
2017-08-26T04:34:45.796Z,12.69
2017-08-26T04:35:57.713Z,12.73
2017-08-26T04:37:10.289Z,12.73
2017-08-26T04:38:22.925Z,12.75
2017-08-26T04:39:35.485Z,12.75
2017-08-26T04:40:47.731Z,12.81
2017-08-26T04:42:00.008Z,12.8
2017-08-26T04:43:12.247Z,12.84
2017-08-26T04:44:24.857Z,12.91
2017-08-26T04:45:37.513Z,12.99
2017-08-26T04:46:50.134Z,12.99
2017-08-26T04:48:02.424Z,12.95
2017-08-26T04:49:14.753Z,13.09
2017-08-26T04:50:27.404Z,13.12
2017-08-26T04:51:40.028Z,13.19
2017-08-26T04:52:51.645Z,13.2
2017-08-26T04:54:03.589Z,13.17
2017-08-26T04:55:16.214Z,13.23
2017-08-26T04:56:28.783Z,13.2
2017-08-26T04:57:41.027Z,13.36
2017-08-26T04:58:53.856Z,13.33
2017-08-26T05:00:06.473Z,13.42
2017-08-26T05:01:19.088Z,13.47
2017-08-26T05:02:31.635Z,13.52
2017-08-26T05:03:44.173Z,13.57
2017-08-26T05:04:56.757Z,13.6
2017-08-26T05:06:08.723Z,13.67
2017-08-26T05:07:21.269Z,13.67
2017-08-26T05:08:33.578Z,13.79
2017-08-26T05:09:46.123Z,13.78
2017-08-26T05:10:58.714Z,13.83
2017-08-26T05:12:11.359Z,13.83
2017-08-26T05:13:23.945Z,13.83
2017-08-26T05:14:36.215Z,13.86
2017-08-26T05:15:48.821Z,13.94
2017-08-26T05:17:00.775Z,13.97
2017-08-26T05:18:13.394Z,14.05
2017-08-26T05:19:25.702Z,14.13
2017-08-26T05:20:38.277Z,14.2
2017-08-26T05:21:50.532Z,14.12
2017-08-26T05:23:03.042Z,14.3
2017-08-26T05:24:15.062Z,14.23
2017-08-26T05:25:27.668Z,14.34
2017-08-26T05:26:40.250Z,14.36
2017-08-26T05:27:52.510Z,14.38
2017-08-26T05:29:05.015Z,14.45
2017-08-26T05:30:17.003Z,14.53
2017-08-26T05:31:29.806Z,14.49
2017-08-26T05:32:42.077Z,14.53
2017-08-26T05:33:54.348Z,14.55
2017-08-26T05:35:06.625Z,14.67
2017-08-26T05:36:18.605Z,14.66
2017-08-26T05:37:31.220Z,14.73
2017-08-26T05:38:43.815Z,14.78
2017-08-26T05:39:56.383Z,14.78
2017-08-26T05:41:08.662Z,14.93
2017-08-26T05:42:20.972Z,14.93
2017-08-26T05:43:32.615Z,14.96
2017-08-26T05:44:45.175Z,15.05
2017-08-26T05:45:57.802Z,15.04
2017-08-26T05:47:10.358Z,15.04
2017-08-26T05:48:22.995Z,15.07
2017-08-26T05:49:35.289Z,15.05
2017-08-26T05:50:47.902Z,15.12
2017-08-26T05:52:00.470Z,15.1
2017-08-26T05:53:12.478Z,15.15
2017-08-26T05:54:24.748Z,15.14
2017-08-26T05:55:37.354Z,15.32
2017-08-26T05:56:49.659Z,15.23
2017-08-26T05:58:01.960Z,15.19
2017-08-26T05:59:14.179Z,15.39
2017-08-26T06:00:26.786Z,15.32
2017-08-26T06:01:39.373Z,15.3
2017-08-26T06:02:51.375Z,15.44
2017-08-26T06:04:04.187Z,15.5
2017-08-26T06:05:16.737Z,15.51
2017-08-26T06:06:29.365Z,15.65
2017-08-26T06:07:41.637Z,15.66
2017-08-26T06:08:53.301Z,15.8
2017-08-26T06:10:05.593Z,15.88
2017-08-26T06:11:17.887Z,15.94
2017-08-26T06:12:30.418Z,15.92
2017-08-26T06:13:43.010Z,16.1
2017-08-26T06:14:55.666Z,16.12
2017-08-26T06:16:08.211Z,16.18
2017-08-26T06:17:20.538Z,16.26
2017-08-26T06:18:32.811Z,16.37
2017-08-26T06:19:45.390Z,16.36
2017-08-26T06:20:57.680Z,16.39
2017-08-26T06:22:09.983Z,16.5
2017-08-26T06:23:22.543Z,16.58
2017-08-26T06:24:35.092Z,16.61
2017-08-26T06:25:47.935Z,16.72
2017-08-26T06:27:00.454Z,16.77
2017-08-26T06:28:13.082Z,16.83
2017-08-26T06:29:25.708Z,16.86
2017-08-26T06:30:38.284Z,17.02
2017-08-26T06:31:50.922Z,17.01
2017-08-26T06:33:03.183Z,17.09
2017-08-26T06:34:15.800Z,17.04
2017-08-26T06:35:28.486Z,17.14
2017-08-26T06:36:40.755Z,17.28
2017-08-26T06:37:52.723Z,17.44
2017-08-26T06:39:05.354Z,17.52
2017-08-26T06:40:17.988Z,17.71
2017-08-26T06:41:30.630Z,17.88
2017-08-26T06:42:42.911Z,18
2017-08-26T06:43:55.543Z,18.37
2017-08-26T06:45:07.495Z,18.48
2017-08-26T06:46:20.095Z,18.74
2017-08-26T06:47:32.332Z,18.96
2017-08-26T06:48:44.611Z,19.23
2017-08-26T06:49:57.221Z,19.44
2017-08-26T06:51:09.465Z,19.62
2017-08-26T06:52:22.042Z,19.64
2017-08-26T06:53:34.620Z,19.82
2017-08-26T06:54:47.297Z,19.92
2017-08-26T06:55:59.849Z,20.02
2017-08-26T06:57:12.448Z,20.11
2017-08-26T06:58:24.991Z,20.11
2017-08-26T06:59:37.548Z,20.12
2017-08-26T07:00:50.116Z,20.26
2017-08-26T07:02:02.089Z,20.24
2017-08-26T07:03:14.385Z,20.33
2017-08-26T07:04:26.397Z,20.46
2017-08-26T07:05:38.951Z,20.55
2017-08-26T07:06:51.586Z,20.66
2017-08-26T07:08:04.209Z,20.77
2017-08-26T07:09:16.508Z,20.8
2017-08-26T07:10:29.125Z,20.77
2017-08-26T07:11:41.124Z,20.83
2017-08-26T07:12:53.748Z,20.82
2017-08-26T07:14:06.272Z,20.88
2017-08-26T07:15:19.187Z,20.85
2017-08-26T07:16:31.501Z,20.88
2017-08-26T07:17:44.152Z,20.9
2017-08-26T07:18:56.471Z,20.9
2017-08-26T07:20:08.474Z,20.9
2017-08-26T07:21:20.751Z,20.98
2017-08-26T07:22:33.078Z,20.92
2017-08-26T07:23:44.998Z,21.03
2017-08-26T07:24:57.312Z,21.05
2017-08-26T07:26:09.977Z,21.05
2017-08-26T07:27:22.295Z,21.15
2017-08-26T07:28:34.930Z,21.19
2017-08-26T07:29:47.506Z,21.26
2017-08-26T07:31:00.077Z,21.29
2017-08-26T07:32:12.680Z,21.45
2017-08-26T07:33:25.319Z,21.53
2017-08-26T07:34:37.866Z,21.51
2017-08-26T07:35:50.156Z,21.66
2017-08-26T07:37:02.139Z,21.69
2017-08-26T07:38:14.424Z,21.83
2017-08-26T07:39:27.029Z,21.92
2017-08-26T07:40:39.686Z,22.12
2017-08-26T07:41:52.569Z,22.1
2017-08-26T07:43:04.874Z,22.1
2017-08-26T07:44:17.505Z,22.16
2017-08-26T07:45:30.140Z,22.14
2017-08-26T07:46:42.392Z,22.25
2017-08-26T07:47:54.638Z,22.28
2017-08-26T07:49:06.636Z,22.43
2017-08-26T07:50:19.184Z,22.44
2017-08-26T07:51:31.501Z,22.59
2017-08-26T07:52:44.092Z,22.7
2017-08-26T07:53:56.697Z,22.61
2017-08-26T07:55:09.278Z,22.71
2017-08-26T07:56:21.563Z,22.7
2017-08-26T07:57:34.158Z,22.56
2017-08-26T07:58:46.727Z,22.55
2017-08-26T07:59:59.363Z,22.62
2017-08-26T08:01:11.342Z,22.62
2017-08-26T08:02:23.935Z,22.56
2017-08-26T08:03:36.533Z,22.63
2017-08-26T08:04:48.533Z,22.58
2017-08-26T08:06:00.821Z,22.56
2017-08-26T08:07:13.420Z,22.55
2017-08-26T08:08:25.381Z,22.55
2017-08-26T08:09:37.335Z,22.62
2017-08-26T08:10:49.911Z,22.58
2017-08-26T08:12:02.557Z,22.62
2017-08-26T08:13:14.175Z,22.68
2017-08-26T08:14:26.697Z,22.62
2017-08-26T08:15:38.975Z,22.67
2017-08-26T08:16:51.253Z,22.68
2017-08-26T08:18:03.829Z,22.61
2017-08-26T08:19:16.408Z,22.65
2017-08-26T08:20:28.970Z,22.58
2017-08-26T08:21:40.943Z,22.55
2017-08-26T08:22:53.241Z,22.46
2017-08-26T08:24:05.836Z,22.44
2017-08-26T08:25:18.449Z,22.47
2017-08-26T08:26:30.727Z,22.43
2017-08-26T08:27:42.975Z,22.36
2017-08-26T08:28:55.231Z,22.28
2017-08-26T08:30:07.157Z,22.33
2017-08-26T08:31:19.458Z,22.3
2017-08-26T08:32:32.037Z,22.25
2017-08-26T08:33:44.328Z,22.18
2017-08-26T08:34:56.886Z,22.19
2017-08-26T08:36:09.542Z,22.19
2017-08-26T08:37:21.859Z,22.19
2017-08-26T08:38:34.390Z,22.28
2017-08-26T08:39:46.054Z,22.28
2017-08-26T08:40:58.664Z,22.21
2017-08-26T08:42:11.277Z,22.26
2017-08-26T08:43:23.855Z,22.25
2017-08-26T08:44:36.449Z,22.25
2017-08-26T08:45:48.110Z,22.23
2017-08-26T08:47:00.748Z,22.31
2017-08-26T08:48:13.050Z,22.22
2017-08-26T08:49:25.341Z,22.23
2017-08-26T08:50:37.613Z,22.28
2017-08-26T08:51:49.857Z,22.3
2017-08-26T08:53:02.131Z,22.36
2017-08-26T08:54:14.677Z,22.36
2017-08-26T08:55:26.628Z,22.38
2017-08-26T08:56:39.192Z,22.43
2017-08-26T08:57:51.137Z,22.43
2017-08-26T08:59:03.704Z,22.44
2017-08-26T09:00:16.002Z,22.47
2017-08-26T09:01:28.703Z,22.43
2017-08-26T09:02:41.374Z,22.56
2017-08-26T09:03:53.692Z,22.56
2017-08-26T09:05:06.266Z,22.63
2017-08-26T09:06:18.547Z,22.58
2017-08-26T09:07:31.203Z,22.61
2017-08-26T09:08:43.763Z,22.71
2017-08-26T09:09:56.348Z,22.71
2017-08-26T09:11:08.954Z,22.76
2017-08-26T09:12:21.283Z,22.81
2017-08-26T09:13:33.913Z,22.91
2017-08-26T09:14:46.538Z,22.88
2017-08-26T09:15:59.142Z,22.95
2017-08-26T09:17:11.201Z,22.98
2017-08-26T09:18:23.814Z,22.98
2017-08-26T09:19:36.681Z,23.04
2017-08-26T09:20:49.276Z,23.25
2017-08-26T09:22:01.883Z,23.25
2017-08-26T09:23:14.505Z,23.34
2017-08-26T09:24:26.831Z,23.45
2017-08-26T09:25:39.087Z,23.52
2017-08-26T09:26:51.659Z,23.54
2017-08-26T09:28:03.960Z,23.67
2017-08-26T09:29:16.278Z,23.66
2017-08-26T09:30:28.877Z,23.79
2017-08-26T09:31:40.847Z,23.94
2017-08-26T09:32:53.446Z,23.95
2017-08-26T09:34:05.108Z,23.92
2017-08-26T09:35:17.663Z,23.95
2017-08-26T09:36:29.957Z,24.04
2017-08-26T09:37:42.577Z,24.13
2017-08-26T09:38:54.854Z,24.24
2017-08-26T09:40:06.774Z,24.18
2017-08-26T09:41:19.053Z,24.21
2017-08-26T09:42:31.649Z,24.25
2017-08-26T09:43:44.220Z,24.41
2017-08-26T09:44:56.846Z,24.41
2017-08-26T09:46:09.453Z,24.5
2017-08-26T09:47:21.710Z,24.61
2017-08-26T09:48:34.419Z,24.53
2017-08-26T09:49:47.047Z,24.61
2017-08-26T09:50:58.967Z,24.59
2017-08-26T09:52:11.588Z,24.61
2017-08-26T09:53:24.172Z,24.71
2017-08-26T09:54:36.756Z,24.68
2017-08-26T09:55:49.375Z,24.78
2017-08-26T09:57:01.950Z,24.74
2017-08-26T09:58:14.206Z,24.81
2017-08-26T09:59:26.829Z,24.77
2017-08-26T10:00:39.406Z,24.84
2017-08-26T10:01:51.653Z,24.77
2017-08-26T10:03:03.981Z,24.81
2017-08-26T10:04:16.621Z,24.77
2017-08-26T10:05:29.172Z,24.61
2017-08-26T10:06:41.482Z,24.69
2017-08-26T10:07:54.017Z,24.63
2017-08-26T10:09:06.253Z,24.58
2017-08-26T10:10:18.834Z,24.55
2017-08-26T10:11:31.467Z,24.56
2017-08-26T10:12:43.758Z,24.41
2017-08-26T10:13:56.284Z,24.5
2017-08-26T10:15:08.885Z,24.37
2017-08-26T10:16:21.469Z,24.38
2017-08-26T10:17:34.058Z,24.38
2017-08-26T10:18:46.685Z,24.4
2017-08-26T10:19:58.994Z,24.47
2017-08-26T10:21:11.618Z,24.47
2017-08-26T10:22:23.965Z,24.47
2017-08-26T10:23:36.229Z,24.58
2017-08-26T10:24:48.525Z,24.61
2017-08-26T10:26:00.519Z,24.69
2017-08-26T10:27:12.438Z,24.58
2017-08-26T10:28:24.694Z,24.65
2017-08-26T10:29:36.940Z,24.71
2017-08-26T10:30:49.227Z,24.74
2017-08-26T10:32:01.499Z,24.81
2017-08-26T10:33:14.116Z,24.84
2017-08-26T10:34:26.710Z,24.84
2017-08-26T10:35:38.972Z,24.89
2017-08-26T10:36:51.245Z,24.93
2017-08-26T10:38:03.497Z,24.96
2017-08-26T10:39:15.721Z,24.99
2017-08-26T10:40:27.993Z,24.99
2017-08-26T10:41:40.608Z,25.06
2017-08-26T10:42:53.222Z,25.04
2017-08-26T10:44:05.207Z,25.15
2017-08-26T10:45:17.229Z,25.19
2017-08-26T10:46:29.510Z,25.34
2017-08-26T10:47:41.814Z,25.51
2017-08-26T10:48:54.417Z,25.74
2017-08-26T10:50:06.347Z,25.96
2017-08-26T10:51:18.623Z,26.27
2017-08-26T10:52:31.192Z,26.41
2017-08-26T10:53:43.769Z,26.67
2017-08-26T10:54:56.029Z,26.82
2017-08-26T10:56:08.617Z,27.03
2017-08-26T10:57:21.481Z,27.2
2017-08-26T10:58:33.820Z,27.34
2017-08-26T10:59:45.543Z,27.33
2017-08-26T11:00:58.250Z,27.41
2017-08-26T11:02:10.885Z,27.47
2017-08-26T11:03:23.499Z,27.6
2017-08-26T11:04:36.077Z,27.79
2017-08-26T11:05:48.676Z,27.82
2017-08-26T11:07:00.944Z,27.94
2017-08-26T11:08:13.471Z,28.04
2017-08-26T11:09:25.711Z,28.09
2017-08-26T11:10:38.318Z,28.25
2017-08-26T11:11:50.986Z,28.49
2017-08-26T11:13:03.223Z,28.72
2017-08-26T11:14:15.443Z,28.65
2017-08-26T11:15:27.729Z,28.8
2017-08-26T11:16:40.361Z,28.84
2017-08-26T11:17:52.688Z,28.72
2017-08-26T11:19:04.962Z,28.83
2017-08-26T11:20:17.587Z,28.87
2017-08-26T11:21:29.927Z,29.05
2017-08-26T11:22:42.568Z,29.13
2017-08-26T11:23:54.563Z,29.28
2017-08-26T11:25:06.827Z,29.32
2017-08-26T11:26:19.077Z,29.39
2017-08-26T11:27:31.362Z,29.43
2017-08-26T11:28:43.666Z,29.49
2017-08-26T11:29:55.310Z,29.61
2017-08-26T11:31:07.873Z,29.62
2017-08-26T11:32:20.456Z,29.57
2017-08-26T11:33:32.698Z,29.74
2017-08-26T11:34:45.322Z,29.68
2017-08-26T11:35:57.915Z,29.57
2017-08-26T11:37:09.897Z,29.49
2017-08-26T11:38:21.942Z,29.27
2017-08-26T11:39:34.569Z,29.3
2017-08-26T11:40:46.775Z,29.31
2017-08-26T11:41:59.034Z,29.24
2017-08-26T11:43:10.994Z,29.25
2017-08-26T11:44:23.321Z,29.15
2017-08-26T11:45:35.947Z,29.16
2017-08-26T11:46:47.925Z,29.21
2017-08-26T11:47:59.896Z,29.05
2017-08-26T11:49:12.476Z,29.13
2017-08-26T11:50:24.739Z,29.02
2017-08-26T11:51:37.332Z,29.05
2017-08-26T11:52:49.585Z,29.03
2017-08-26T11:54:01.866Z,29.22
2017-08-26T11:55:14.147Z,29.31
2017-08-26T11:56:26.126Z,29.4
2017-08-26T11:57:38.711Z,29.64
2017-08-26T11:58:51.306Z,29.71
2017-08-26T12:00:03.268Z,29.87
2017-08-26T12:01:15.568Z,30.2
2017-08-26T12:02:27.468Z,30.32
2017-08-26T12:03:39.987Z,30.46
2017-08-26T12:04:52.587Z,30.44
2017-08-26T12:06:05.197Z,30.38
2017-08-26T12:07:17.482Z,30.36
2017-08-26T12:08:30.096Z,30.14
2017-08-26T12:09:42.699Z,30.06
2017-08-26T12:10:55.375Z,29.94
2017-08-26T12:12:07.694Z,29.95
2017-08-26T12:13:20.015Z,29.83
2017-08-26T12:14:32.642Z,29.61
2017-08-26T12:15:44.920Z,29.58
2017-08-26T12:16:57.525Z,29.3
2017-08-26T12:18:09.779Z,29.22
2017-08-26T12:19:22.382Z,29.22
2017-08-26T12:20:34.631Z,29.18
2017-08-26T12:21:46.909Z,29.03
2017-08-26T12:22:59.230Z,29
2017-08-26T12:24:11.193Z,28.9
2017-08-26T12:25:23.491Z,28.97
2017-08-26T12:26:36.072Z,28.94
2017-08-26T12:27:48.043Z,29
2017-08-26T12:29:00.023Z,28.97
2017-08-26T12:30:11.947Z,28.93
2017-08-26T12:31:24.231Z,28.82
2017-08-26T12:32:36.538Z,28.8
2017-08-26T12:33:48.834Z,28.71
2017-08-26T12:35:01.401Z,28.68
2017-08-26T12:36:13.683Z,28.68
2017-08-26T12:37:26.266Z,28.72
2017-08-26T12:38:38.573Z,28.77
2017-08-26T12:39:50.571Z,28.7
2017-08-26T12:41:02.877Z,28.65
2017-08-26T12:42:15.487Z,28.64
2017-08-26T12:43:28.087Z,28.64
2017-08-26T12:44:40.377Z,28.52
2017-08-26T12:45:52.691Z,28.34
2017-08-26T12:47:05.032Z,28.31
2017-08-26T12:48:17.652Z,28.38
2017-08-26T12:49:29.976Z,28.41
2017-08-26T12:50:42.587Z,28.28
2017-08-26T12:51:55.251Z,28.19
2017-08-26T12:53:07.571Z,28.15
2017-08-26T12:54:19.849Z,28.12
2017-08-26T12:55:32.456Z,28.04
2017-08-26T12:56:44.725Z,28.09
2017-08-26T12:57:57.310Z,28.01
2017-08-26T12:59:09.877Z,28.12
2017-08-26T13:00:22.513Z,28.09
2017-08-26T13:01:35.133Z,28.01
2017-08-26T13:02:47.754Z,28.03
2017-08-26T13:04:00.370Z,28.04
2017-08-26T13:05:12.321Z,28.04
2017-08-26T13:06:24.293Z,27.88
2017-08-26T13:07:36.546Z,27.88
2017-08-26T13:08:48.855Z,27.86
2017-08-26T13:10:01.167Z,27.78
2017-08-26T13:11:13.429Z,27.66
2017-08-26T13:12:25.772Z,27.66
2017-08-26T13:13:38.353Z,27.66
2017-08-26T13:14:50.356Z,27.71
2017-08-26T13:16:02.928Z,27.66
2017-08-26T13:17:15.179Z,27.66
2017-08-26T13:18:27.520Z,27.63
2017-08-26T13:19:40.128Z,27.67
2017-08-26T13:20:52.727Z,27.66
2017-08-26T13:22:05.279Z,27.66
2017-08-26T13:23:17.633Z,27.6
2017-08-26T13:24:29.622Z,27.72
2017-08-26T13:25:42.246Z,27.9
2017-08-26T13:26:54.846Z,27.83
2017-08-26T13:28:07.463Z,27.86
2017-08-26T13:29:19.772Z,27.81
2017-08-26T13:30:32.368Z,27.72
2017-08-26T13:31:44.683Z,27.71
2017-08-26T13:32:57.298Z,27.68
2017-08-26T13:34:09.923Z,27.71
2017-08-26T13:35:22.531Z,27.67
2017-08-26T13:36:34.628Z,27.73
2017-08-26T13:37:47.186Z,27.75
2017-08-26T13:38:59.800Z,27.81
2017-08-26T13:40:11.443Z,27.79
2017-08-26T13:41:24.035Z,27.88
2017-08-26T13:42:36.668Z,27.97
2017-08-26T13:43:48.951Z,28.04
2017-08-26T13:45:00.974Z,27.97
2017-08-26T13:46:13.298Z,27.95
2017-08-26T13:47:25.946Z,27.67
2017-08-26T13:48:38.468Z,27.64
2017-08-26T13:49:51.023Z,27.64
2017-08-26T13:51:03.635Z,27.68
2017-08-26T13:52:16.308Z,27.72
2017-08-26T13:53:28.566Z,27.78
2017-08-26T13:54:41.205Z,27.72
2017-08-26T13:55:53.465Z,27.81
2017-08-26T13:57:06.091Z,27.86
2017-08-26T13:58:18.687Z,27.95
2017-08-26T13:59:31.324Z,28.01
2017-08-26T14:00:43.634Z,28.03
2017-08-26T14:01:56.243Z,28.09
2017-08-26T14:03:08.844Z,28.08
2017-08-26T14:04:21.462Z,28.15
2017-08-26T14:05:33.785Z,28.19
2017-08-26T14:06:46.063Z,28.03
2017-08-26T14:07:58.672Z,28.04
2017-08-26T14:09:10.969Z,27.85
2017-08-26T14:10:23.313Z,27.82
2017-08-26T14:11:35.913Z,27.72
2017-08-26T14:12:48.534Z,27.64
2017-08-26T14:14:01.172Z,27.61
2017-08-26T14:15:13.715Z,27.43
2017-08-26T14:16:26.313Z,27.5
2017-08-26T14:17:38.929Z,27.37
2017-08-26T14:18:51.518Z,27.3
2017-08-26T14:20:03.175Z,27.34
2017-08-26T14:21:15.464Z,27.3
2017-08-26T14:22:27.772Z,27.25
2017-08-26T14:23:40.612Z,27.25
2017-08-26T14:24:52.858Z,27.22
2017-08-26T14:26:05.143Z,27.05
2017-08-26T14:27:17.738Z,27.16
2017-08-26T14:28:30.423Z,27.04
2017-08-26T14:29:43.016Z,26.98
2017-08-26T14:30:55.313Z,27.11
2017-08-26T14:32:07.578Z,27.1
2017-08-26T14:33:19.826Z,27.25
2017-08-26T14:34:32.432Z,27.19
2017-08-26T14:35:45.039Z,27.25
2017-08-26T14:36:57.688Z,27.26
2017-08-26T14:38:10.235Z,27.23
2017-08-26T14:39:22.503Z,27.35
2017-08-26T14:40:34.532Z,27.29
2017-08-26T14:41:46.819Z,27.28
2017-08-26T14:42:59.399Z,27.33
2017-08-26T14:44:11.710Z,27.23
2017-08-26T14:45:24.306Z,27.26
2017-08-26T14:46:36.585Z,27.2
2017-08-26T14:47:48.903Z,27.25
2017-08-26T14:49:01.574Z,27.19
2017-08-26T14:50:13.873Z,27.23
2017-08-26T14:51:26.133Z,27.25
2017-08-26T14:52:38.741Z,27.22
2017-08-26T14:53:51.330Z,27.23
2017-08-26T14:55:02.938Z,27.25
2017-08-26T14:56:14.577Z,27.07
2017-08-26T14:57:27.186Z,27.16
2017-08-26T14:58:39.433Z,27.15
2017-08-26T14:59:52.028Z,27.01
2017-08-26T15:01:04.335Z,26.97
2017-08-26T15:02:16.305Z,26.89
2017-08-26T15:03:28.618Z,26.92
2017-08-26T15:04:40.863Z,26.82
2017-08-26T15:05:53.492Z,26.76
2017-08-26T15:07:06.081Z,26.68
2017-08-26T15:08:18.348Z,26.6
2017-08-26T15:09:30.692Z,26.66
2017-08-26T15:10:43.242Z,26.55
2017-08-26T15:11:55.877Z,26.63
2017-08-26T15:13:07.883Z,26.56
2017-08-26T15:14:20.211Z,26.67
2017-08-26T15:15:32.503Z,26.53
2017-08-26T15:16:44.773Z,26.51
2017-08-26T15:17:57.005Z,26.42
2017-08-26T15:19:09.303Z,26.46
2017-08-26T15:20:21.886Z,26.42
2017-08-26T15:21:34.492Z,26.27
2017-08-26T15:22:47.046Z,26.27
2017-08-26T15:23:59.384Z,26.29
2017-08-26T15:25:11.654Z,26.23
2017-08-26T15:26:24.008Z,26.22
2017-08-26T15:27:36.570Z,26.26
2017-08-26T15:28:48.830Z,26.22
2017-08-26T15:30:01.445Z,26.16
2017-08-26T15:31:13.743Z,25.99
2017-08-26T15:32:26.316Z,25.98
2017-08-26T15:33:38.568Z,25.96
2017-08-26T15:34:50.838Z,26.01
2017-08-26T15:36:03.147Z,25.91